Time;durP1;ratioP1;P1;durP2;ratioP2;P2;SDS_P1;SDS_P2;PMS_P1;PMS_P2;Temp;Humidity;BMP_temperature;BMP_pressure;BME280_temperature;BME280_humidity;BME280_pressure;Samples;Min_cycle;Max_cycle;Signal;HPM_P1;HPM_P2
2023/07/24 00:01:56;;;;;;;6.47;5.82;;;;;;;;;;5035794;28;20045;-76
2023/07/24 00:04:24;;;;;;;8.32;6.30;;;;;;;;;;5024831;28;20162;-76
2023/07/24 00:06:51;;;;;;;6.65;6.05;;;;;;;;;;5037071;28;20048;-75
2023/07/24 00:09:18;;;;;;;8.93;6.13;;;;;;;;;;5023757;28;20136;-76
2023/07/24 00:11:46;;;;;;;7.07;5.90;;;;;;;;;;5029419;28;20517;-75
2023/07/24 00:14:13;;;;;;;7.30;6.18;;;;;;;;;;5036730;28;20418;-75
2023/07/24 00:16:41;;;;;;;5.97;5.35;;;;;;;;;;5030275;28;20037;-76
2023/07/24 00:19:08;;;;;;;7.25;5.75;;;;;;;;;;5025677;28;20041;-76
2023/07/24 00:21:35;;;;;;;6.50;5.82;;;;;;;;;;5029966;28;20697;-75
2023/07/24 00:24:03;;;;;;;6.80;6.10;;;;;;;;;;5034599;28;20180;-76
2023/07/24 00:26:30;;;;;;;7.82;6.03;;;;;;;;;;5031808;28;20141;-75
2023/07/24 00:28:59;;;;;;;7.53;5.95;;;;;;;;;;5019058;28;20083;-75
2023/07/24 00:31:27;;;;;;;7.97;5.93;;;;;;;;;;5031499;28;20131;-76
2023/07/24 00:33:54;;;;;;;6.68;5.97;;;;;;;;;;5035568;28;20499;-76
2023/07/24 00:36:22;;;;;;;7.30;5.93;;;;;;;;;;5039147;28;20052;-75
2023/07/24 00:38:49;;;;;;;6.40;5.65;;;;;;;;;;5033438;28;20046;-75
2023/07/24 00:41:16;;;;;;;7.30;6.05;;;;;;;;;;5032324;28;20318;-75
2023/07/24 00:43:44;;;;;;;7.70;6.18;;;;;;;;;;5027749;28;20049;-75
2023/07/24 00:46:12;;;;;;;6.95;6.00;;;;;;;;;;5041982;28;20049;-75
2023/07/24 00:48:41;;;;;;;7.30;6.07;;;;;;;;;;5037053;28;20045;-75
2023/07/24 00:51:08;;;;;;;7.78;5.80;;;;;;;;;;5013162;28;20126;-75
2023/07/24 00:53:36;;;;;;;7.18;5.88;;;;;;;;;;5018116;28;20041;-75
2023/07/24 00:56:03;;;;;;;7.50;6.40;;;;;;;;;;5022741;28;20400;-75
2023/07/24 00:58:31;;;;;;;6.63;5.93;;;;;;;;;;5034274;28;20049;-75
2023/07/24 01:00:58;;;;;;;6.22;5.63;;;;;;;;;;5035013;28;20434;-75
2023/07/24 01:03:31;;;;;;;7.18;5.95;;;;;;;;;;5039102;28;20106;-76
2023/07/24 01:05:59;;;;;;;7.65;5.88;;;;;;;;;;5036033;28;20127;-75
2023/07/24 01:08:27;;;;;;;8.27;5.45;;;;;;;;;;5030580;28;20413;-75
2023/07/24 01:10:59;;;;;;;7.78;6.32;;;;;;;;;;5024774;28;20052;-75
2023/07/24 01:13:28;;;;;;;7.68;6.10;;;;;;;;;;5034941;28;20068;-75
2023/07/24 01:16:01;;;;;;;7.05;6.00;;;;;;;;;;5050284;23;20060;-76
2023/07/24 01:18:29;;;;;;;6.45;5.68;;;;;;;;;;5046649;28;20053;-76
2023/07/24 01:20:57;;;;;;;6.63;5.60;;;;;;;;;;5046261;28;20128;-76
2023/07/24 01:23:38;;;;;;;6.38;5.55;;;;;;;;;;5040994;28;20787;-76
2023/07/24 01:26:07;;;;;;;6.30;5.70;;;;;;;;;;5036151;28;20059;-76
2023/07/24 01:28:34;;;;;;;6.97;6.22;;;;;;;;;;5041868;28;20053;-76
2023/07/24 01:31:02;;;;;;;7.30;5.82;;;;;;;;;;5043777;28;20051;-76
2023/07/24 01:33:31;;;;;;;6.47;5.72;;;;;;;;;;5042226;28;20037;-76
2023/07/24 01:36:00;;;;;;;8.02;6.20;;;;;;;;;;5046172;28;20049;-76
2023/07/24 01:38:28;;;;;;;6.88;5.90;;;;;;;;;;5043435;28;20049;-76
2023/07/24 01:40:55;;;;;;;6.70;5.93;;;;;;;;;;5044565;28;20049;-76
2023/07/24 01:43:23;;;;;;;6.50;5.90;;;;;;;;;;5044367;28;20049;-76
2023/07/24 01:45:50;;;;;;;6.78;6.07;;;;;;;;;;5045393;28;20126;-76
2023/07/24 01:48:18;;;;;;;7.43;5.97;;;;;;;;;;5044073;28;20147;-76
2023/07/24 01:50:47;;;;;;;8.02;5.57;;;;;;;;;;5040341;28;20076;-76
2023/07/24 01:53:15;;;;;;;9.25;6.40;;;;;;;;;;5046672;28;20056;-76
2023/07/24 01:55:42;;;;;;;6.53;5.93;;;;;;;;;;5043659;28;20515;-76
2023/07/24 01:58:10;;;;;;;7.82;5.35;;;;;;;;;;5043446;28;20041;-77
2023/07/24 02:00:37;;;;;;;6.43;5.57;;;;;;;;;;5043282;28;20044;-76
2023/07/24 02:03:05;;;;;;;7.55;5.95;;;;;;;;;;5042905;28;20052;-75
2023/07/24 02:05:33;;;;;;;6.72;6.13;;;;;;;;;;5033874;28;20063;-76
2023/07/24 02:08:00;;;;;;;6.43;5.63;;;;;;;;;;5040117;28;20053;-76
2023/07/24 02:10:28;;;;;;;6.35;5.47;;;;;;;;;;5031838;28;20041;-75
2023/07/24 02:12:55;;;;;;;8.30;6.53;;;;;;;;;;5037910;28;20041;-76
2023/07/24 02:15:22;;;;;;;6.00;5.20;;;;;;;;;;5039032;28;20509;-76
2023/07/24 02:17:50;;;;;;;7.47;5.97;;;;;;;;;;5042839;28;20119;-76
2023/07/24 02:20:17;;;;;;;5.72;5.15;;;;;;;;;;5043142;28;20152;-75
2023/07/24 02:22:45;;;;;;;6.82;5.80;;;;;;;;;;5039062;28;20107;-76
2023/07/24 02:25:12;;;;;;;5.97;5.40;;;;;;;;;;5037330;28;20507;-76
2023/07/24 02:27:40;;;;;;;6.50;5.72;;;;;;;;;;5032671;28;20114;-76
2023/07/24 02:30:07;;;;;;;6.97;5.38;;;;;;;;;;5041387;28;20056;-75
2023/07/24 02:32:35;;;;;;;7.85;5.68;;;;;;;;;;5038808;28;20064;-75
2023/07/24 02:35:03;;;;;;;6.15;5.55;;;;;;;;;;5035221;28;20516;-76
2023/07/24 02:37:31;;;;;;;6.45;5.78;;;;;;;;;;5035989;28;20135;-76
2023/07/24 02:39:58;;;;;;;6.00;5.40;;;;;;;;;;5036904;28;20064;-77
2023/07/24 02:42:27;;;;;;;9.43;6.22;;;;;;;;;;5038127;28;20049;-78
2023/07/24 02:44:54;;;;;;;6.50;5.60;;;;;;;;;;5039060;28;20239;-78
2023/07/24 02:47:22;;;;;;;8.43;5.20;;;;;;;;;;5034985;28;20445;-77
2023/07/24 02:49:49;;;;;;;6.72;5.70;;;;;;;;;;5038014;28;20056;-78
2023/07/24 02:52:17;;;;;;;7.22;5.45;;;;;;;;;;5040199;28;20065;-80
2023/07/24 02:54:46;;;;;;;6.22;5.63;;;;;;;;;;5038623;28;20050;-78
2023/07/24 02:57:13;;;;;;;6.38;5.38;;;;;;;;;;5044828;28;20517;-77
2023/07/24 02:59:40;;;;;;;6.35;5.75;;;;;;;;;;5040917;28;20942;-78
2023/07/24 03:02:08;;;;;;;6.13;5.53;;;;;;;;;;5050091;28;20500;-78
2023/07/24 03:04:35;;;;;;;7.72;6.10;;;;;;;;;;5041055;28;20194;-77
2023/07/24 03:07:02;;;;;;;8.18;6.07;;;;;;;;;;5040920;28;20083;-78
2023/07/24 03:09:30;;;;;;;8.77;6.28;;;;;;;;;;5040812;28;20494;-78
2023/07/24 03:11:57;;;;;;;6.47;5.78;;;;;;;;;;5034655;28;20230;-78
2023/07/24 03:14:25;;;;;;;7.43;6.07;;;;;;;;;;5040245;28;20041;-78
2023/07/24 03:16:53;;;;;;;6.45;5.85;;;;;;;;;;5039658;28;20041;-78
2023/07/24 03:19:20;;;;;;;7.28;6.13;;;;;;;;;;5040265;28;20509;-78
2023/07/24 03:21:48;;;;;;;6.90;6.20;;;;;;;;;;5038985;28;20298;-77
2023/07/24 03:24:15;;;;;;;6.13;5.38;;;;;;;;;;5048970;28;20055;-78
2023/07/24 03:26:44;;;;;;;6.18;5.53;;;;;;;;;;5033276;28;20094;-78
2023/07/24 03:29:11;;;;;;;7.82;6.07;;;;;;;;;;5044192;28;20502;-77
2023/07/24 03:31:38;;;;;;;6.75;6.00;;;;;;;;;;5043395;28;20053;-77
2023/07/24 03:34:06;;;;;;;5.85;5.32;;;;;;;;;;5037432;28;20045;-77
2023/07/24 03:36:35;;;;;;;6.65;5.65;;;;;;;;;;5044882;28;20090;-78
2023/07/24 03:39:03;;;;;;;6.55;5.85;;;;;;;;;;5038084;28;20067;-77
2023/07/24 03:41:30;;;;;;;7.05;5.80;;;;;;;;;;5039214;28;20045;-78
2023/07/24 03:43:58;;;;;;;7.75;5.47;;;;;;;;;;5035471;28;20046;-78
2023/07/24 03:46:25;;;;;;;6.10;5.50;;;;;;;;;;5044342;28;20073;-77
2023/07/24 03:48:53;;;;;;;7.25;5.75;;;;;;;;;;5040188;28;20090;-77
2023/07/24 03:51:21;;;;;;;8.30;6.05;;;;;;;;;;5046821;28;20108;-77
2023/07/24 03:53:48;;;;;;;7.00;6.30;;;;;;;;;;5038104;28;20385;-77
2023/07/24 03:56:16;;;;;;;7.78;6.03;;;;;;;;;;5044520;28;20115;-77
2023/07/24 03:58:43;;;;;;;6.38;5.43;;;;;;;;;;5039577;28;20560;-78
2023/07/24 04:01:10;;;;;;;8.23;5.80;;;;;;;;;;5043832;28;20048;-78
2023/07/24 04:03:38;;;;;;;6.20;5.22;;;;;;;;;;5045977;28;20506;-77
2023/07/24 04:06:05;;;;;;;6.47;5.75;;;;;;;;;;5040471;28;20132;-78
2023/07/24 04:08:33;;;;;;;6.85;6.18;;;;;;;;;;5044108;28;20133;-78
2023/07/24 04:11:00;;;;;;;6.00;5.40;;;;;;;;;;5044910;28;20559;-78
2023/07/24 04:13:28;;;;;;;8.57;5.60;;;;;;;;;;5048238;28;20076;-78
2023/07/24 04:15:57;;;;;;;8.00;5.82;;;;;;;;;;5045438;28;20067;-78
2023/07/24 04:18:24;;;;;;;6.47;5.78;;;;;;;;;;5045097;28;20083;-77
2023/07/24 04:20:52;;;;;;;7.00;5.70;;;;;;;;;;5047504;28;20041;-77
2023/07/24 04:23:19;;;;;;;7.70;5.78;;;;;;;;;;5048148;28;20095;-77
2023/07/24 04:25:46;;;;;;;7.50;5.97;;;;;;;;;;5043175;28;20134;-78
2023/07/24 04:28:14;;;;;;;6.55;5.90;;;;;;;;;;5045387;28;20060;-78
2023/07/24 04:30:41;;;;;;;8.18;6.10;;;;;;;;;;5046944;28;20128;-77
2023/07/24 04:33:09;;;;;;;7.60;5.68;;;;;;;;;;5046659;28;21136;-78
2023/07/24 04:35:36;;;;;;;6.93;5.97;;;;;;;;;;5044619;28;20052;-78
2023/07/24 04:38:04;;;;;;;29.85;9.48;;;;;;;;;;5047310;28;20065;-77
2023/07/24 04:40:31;;;;;;;6.45;5.82;;;;;;;;;;5041018;28;20119;-77
2023/07/24 04:42:59;;;;;;;8.20;5.20;;;;;;;;;;5043124;28;20041;-77
2023/07/24 04:45:26;;;;;;;8.23;6.00;;;;;;;;;;5045412;28;20053;-78
2023/07/24 04:47:54;;;;;;;6.70;5.95;;;;;;;;;;5040207;28;20216;-77
2023/07/24 04:50:21;;;;;;;7.30;6.00;;;;;;;;;;5048255;28;20072;-78
2023/07/24 04:52:49;;;;;;;8.68;6.20;;;;;;;;;;5045127;28;20052;-78
2023/07/24 04:55:16;;;;;;;7.13;6.15;;;;;;;;;;5043670;28;20045;-77
2023/07/24 04:57:44;;;;;;;6.55;5.70;;;;;;;;;;5044680;28;20037;-78
2023/07/24 05:00:11;;;;;;;11.70;6.75;;;;;;;;;;5039372;28;20064;-77
2023/07/24 05:02:39;;;;;;;6.63;5.60;;;;;;;;;;5038301;28;20106;-78
2023/07/24 05:05:06;;;;;;;7.43;5.97;;;;;;;;;;5037561;28;20041;-78
2023/07/24 05:07:33;;;;;;;9.93;6.22;;;;;;;;;;5036233;28;20749;-77
2023/07/24 05:10:01;;;;;;;10.82;6.47;;;;;;;;;;5041183;28;20051;-77
2023/07/24 05:12:28;;;;;;;7.78;5.60;;;;;;;;;;5044266;28;20045;-78
2023/07/24 05:14:56;;;;;;;6.18;5.57;;;;;;;;;;5034702;28;20064;-78
2023/07/24 05:17:23;;;;;;;6.55;5.72;;;;;;;;;;5032127;28;20053;-77
2023/07/24 05:19:50;;;;;;;7.05;5.85;;;;;;;;;;5043086;28;21018;-78
2023/07/24 05:22:18;;;;;;;6.38;5.55;;;;;;;;;;5039460;28;20210;-78
2023/07/24 05:24:45;;;;;;;6.53;5.38;;;;;;;;;;5043910;28;20208;-78
2023/07/24 05:27:15;;;;;;;8.35;5.75;;;;;;;;;;5038795;28;20502;-78
2023/07/24 05:29:43;;;;;;;11.90;6.10;;;;;;;;;;5040557;28;20511;-78
2023/07/24 05:32:10;;;;;;;12.07;6.53;;;;;;;;;;5044424;28;20045;-78
2023/07/24 05:34:38;;;;;;;12.73;6.20;;;;;;;;;;5048540;28;20045;-77
2023/07/24 05:37:06;;;;;;;15.02;7.00;;;;;;;;;;5047169;28;20052;-77
2023/07/24 05:39:33;;;;;;;7.28;5.70;;;;;;;;;;5047029;28;20041;-77
2023/07/24 05:42:00;;;;;;;6.35;5.40;;;;;;;;;;5046430;28;20048;-77
2023/07/24 05:44:28;;;;;;;7.72;6.38;;;;;;;;;;5047202;28;20355;-78
2023/07/24 05:46:55;;;;;;;9.40;6.15;;;;;;;;;;5044796;28;20052;-78
2023/07/24 05:49:23;;;;;;;6.43;5.55;;;;;;;;;;5044207;28;20099;-77
2023/07/24 05:51:52;;;;;;;8.45;6.40;;;;;;;;;;5044846;28;20056;-77
2023/07/24 05:54:19;;;;;;;7.85;6.72;;;;;;;;;;5046618;28;20052;-77
2023/07/24 05:56:46;;;;;;;13.50;6.05;;;;;;;;;;5045994;28;20045;-77
2023/07/24 05:59:14;;;;;;;8.02;6.78;;;;;;;;;;5044136;28;20047;-77
2023/07/24 06:01:41;;;;;;;7.85;5.63;;;;;;;;;;5046187;28;20118;-77
2023/07/24 06:04:09;;;;;;;7.13;5.80;;;;;;;;;;5044463;28;20059;-78
2023/07/24 06:06:36;;;;;;;7.07;5.40;;;;;;;;;;5039853;28;20417;-78
2023/07/24 06:09:04;;;;;;;6.85;5.40;;;;;;;;;;5040215;28;20522;-77
2023/07/24 06:11:31;;;;;;;7.60;5.60;;;;;;;;;;5042339;28;20460;-77
2023/07/24 06:13:58;;;;;;;7.00;6.07;;;;;;;;;;5045248;28;20056;-78
2023/07/24 06:16:26;;;;;;;9.52;5.85;;;;;;;;;;5045438;28;20446;-78
2023/07/24 06:18:54;;;;;;;7.00;5.53;;;;;;;;;;5047024;28;20045;-77
2023/07/24 06:21:21;;;;;;;6.22;5.38;;;;;;;;;;5047438;28;20041;-78
2023/07/24 06:23:49;;;;;;;6.20;5.60;;;;;;;;;;5043531;28;20053;-77
2023/07/24 06:26:16;;;;;;;6.93;5.38;;;;;;;;;;5048724;28;20060;-77
2023/07/24 06:28:44;;;;;;;12.05;6.43;;;;;;;;;;5047806;28;20399;-77
2023/07/24 06:31:11;;;;;;;5.38;4.82;;;;;;;;;;5045204;28;20136;-78
2023/07/24 06:33:38;;;;;;;5.55;4.97;;;;;;;;;;5046388;28;20128;-78
2023/07/24 06:36:10;;;;;;;5.32;4.68;;;;;;;;;;5047329;28;20045;-78
2023/07/24 06:38:37;;;;;;;;;;;;;;;;;;5045241;28;20045;-77
2023/07/24 06:41:04;;;;;;;18.50;6.72;;;;;;;;;;5045888;28;19963;-77
2023/07/24 06:43:32;;;;;;;11.00;6.00;;;;;;;;;;5051228;28;20041;-77
2023/07/24 06:45:59;;;;;;;9.75;5.63;;;;;;;;;;5052850;28;20128;-77
2023/07/24 06:48:27;;;;;;;7.90;5.40;;;;;;;;;;5053094;28;20045;-77
2023/07/24 06:50:54;;;;;;;5.82;5.32;;;;;;;;;;5049562;28;20083;-77
2023/07/24 06:53:22;;;;;;;11.32;5.38;;;;;;;;;;5047306;28;20049;-77
2023/07/24 06:55:49;;;;;;;5.60;5.10;;;;;;;;;;5045574;28;20536;-77
2023/07/24 06:58:17;;;;;;;5.63;5.03;;;;;;;;;;5049454;28;20049;-77
2023/07/24 07:00:44;;;;;;;5.70;5.13;;;;;;;;;;5048579;28;20082;-77
2023/07/24 07:03:12;;;;;;;5.43;4.93;;;;;;;;;;5048068;28;20091;-78
2023/07/24 07:05:39;;;;;;;6.88;5.20;;;;;;;;;;5047246;28;20048;-77
2023/07/24 07:08:07;;;;;;;8.20;5.18;;;;;;;;;;5049437;28;21259;-77
2023/07/24 07:10:34;;;;;;;5.40;4.90;;;;;;;;;;5052119;28;20265;-77
2023/07/24 07:13:01;;;;;;;9.35;5.30;;;;;;;;;;5046533;28;20041;-76
2023/07/24 07:15:29;;;;;;;23.35;7.18;;;;;;;;;;5043185;28;20054;-77
2023/07/24 07:17:56;;;;;;;11.20;5.78;;;;;;;;;;5047288;28;20053;-78
2023/07/24 07:20:24;;;;;;;8.25;5.70;;;;;;;;;;5053402;28;20059;-77
2023/07/24 07:22:51;;;;;;;11.25;6.60;;;;;;;;;;5047100;28;20049;-77
2023/07/24 07:25:19;;;;;;;7.57;5.28;;;;;;;;;;5045647;28;20265;-77
2023/07/24 07:27:46;;;;;;;11.77;5.45;;;;;;;;;;5047318;28;20847;-77
2023/07/24 07:30:13;;;;;;;7.03;5.80;;;;;;;;;;5039809;28;20514;-76
2023/07/24 07:32:41;;;;;;;6.88;5.53;;;;;;;;;;5043880;28;20099;-76
2023/07/24 07:35:09;;;;;;;5.60;5.05;;;;;;;;;;5040809;28;20052;-77
2023/07/24 07:37:36;;;;;;;8.55;5.38;;;;;;;;;;5048538;28;20044;-77
2023/07/24 07:40:04;;;;;;;11.15;6.38;;;;;;;;;;5048278;28;20041;-77
2023/07/24 07:42:32;;;;;;;15.52;7.05;;;;;;;;;;5043109;28;20046;-76
2023/07/24 07:44:59;;;;;;;9.50;5.32;;;;;;;;;;5048914;28;20107;-77
2023/07/24 07:47:27;;;;;;;5.75;5.25;;;;;;;;;;5047711;28;20040;-77
2023/07/24 07:49:54;;;;;;;10.05;5.70;;;;;;;;;;5046203;28;20057;-77
2023/07/24 07:52:22;;;;;;;10.82;5.65;;;;;;;;;;5048216;28;20126;-77
2023/07/24 07:54:50;;;;;;;16.60;6.53;;;;;;;;;;5047201;28;20122;-77
2023/07/24 07:57:17;;;;;;;10.38;5.78;;;;;;;;;;5048169;28;20518;-77
2023/07/24 07:59:44;;;;;;;6.18;5.57;;;;;;;;;;5039651;28;20115;-77
2023/07/24 08:02:12;;;;;;;8.07;5.95;;;;;;;;;;5045417;28;20048;-77
2023/07/24 08:04:39;;;;;;;7.68;5.38;;;;;;;;;;5037413;28;20358;-78
2023/07/24 08:07:07;;;;;;;11.13;6.20;;;;;;;;;;5042232;28;20144;-78
2023/07/24 08:09:35;;;;;;;8.45;6.22;;;;;;;;;;5043901;28;20048;-78
2023/07/24 08:12:03;;;;;;;9.38;6.03;;;;;;;;;;5048524;28;20036;-78
2023/07/24 08:14:33;;;;;;;8.38;5.90;;;;;;;;;;5045608;28;20044;-78
2023/07/24 08:17:01;;;;;;;7.15;5.00;;;;;;;;;;5047170;28;20067;-78
2023/07/24 08:19:29;;;;;;;5.90;5.03;;;;;;;;;;5052798;28;20037;-78
2023/07/24 08:21:57;;;;;;;5.40;4.90;;;;;;;;;;5057585;28;20049;-78
2023/07/24 08:24:24;;;;;;;5.55;5.05;;;;;;;;;;5056453;28;20040;-78
2023/07/24 08:26:52;;;;;;;6.25;5.20;;;;;;;;;;5055196;28;20045;-78
2023/07/24 08:29:19;;;;;;;5.88;5.32;;;;;;;;;;5050696;28;20049;-79
2023/07/24 08:31:46;;;;;;;6.20;4.95;;;;;;;;;;5047877;28;20056;-79
2023/07/24 08:34:14;;;;;;;7.13;5.97;;;;;;;;;;5047827;28;20487;-79
2023/07/24 08:36:41;;;;;;;7.72;5.50;;;;;;;;;;5051772;28;20029;-79
2023/07/24 08:39:09;;;;;;;7.13;4.80;;;;;;;;;;5051574;28;20037;-79
2023/07/24 08:41:39;;;;;;;8.73;5.50;;;;;;;;;;5053057;28;20067;-79
2023/07/24 08:44:10;;;;;;;5.57;5.07;;;;;;;;;;5052622;28;20052;-79
2023/07/24 08:46:40;;;;;;;5.35;4.85;;;;;;;;;;5053938;28;20045;-79
2023/07/24 08:49:14;;;;;;;4.97;4.47;;;;;;;;;;5053375;28;20044;-78
2023/07/24 08:51:42;;;;;;;5.18;4.70;;;;;;;;;;5047492;28;20113;-79
2023/07/24 08:54:09;;;;;;;4.68;4.20;;;;;;;;;;5051013;28;20222;-79
2023/07/24 08:56:39;;;;;;;5.80;4.15;;;;;;;;;;5043473;28;20041;-79
2023/07/24 08:59:06;;;;;;;4.82;4.43;;;;;;;;;;5047875;28;20065;-79
2023/07/24 09:01:34;;;;;;;4.88;4.47;;;;;;;;;;5043002;28;20461;-79
2023/07/24 09:04:01;;;;;;;5.55;4.80;;;;;;;;;;5042924;28;20368;-79
2023/07/24 09:06:29;;;;;;;4.70;4.30;;;;;;;;;;5045729;28;20048;-78
2023/07/24 09:08:57;;;;;;;5.18;4.70;;;;;;;;;;5043640;28;20491;-78
2023/07/24 09:11:24;;;;;;;6.47;4.30;;;;;;;;;;5043750;28;20048;-77
2023/07/24 09:13:52;;;;;;;5.13;4.63;;;;;;;;;;5041428;28;20132;-77
2023/07/24 09:16:25;;;;;;;5.60;4.55;;;;;;;;;;5055968;28;20083;-78
2023/07/24 09:18:53;;;;;;;4.80;4.40;;;;;;;;;;5054133;28;20108;-78
2023/07/24 09:21:31;;;;;;;4.45;4.00;;;;;;;;;;5050292;28;20045;-78
2023/07/24 09:24:09;;;;;;;5.38;4.90;;;;;;;;;;5046727;28;20049;-78
2023/07/24 09:26:46;;;;;;;8.55;4.72;;;;;;;;;;5046595;28;20815;-79
2023/07/24 09:29:14;;;;;;;5.25;4.60;;;;;;;;;;5043986;28;20049;-78
2023/07/24 09:31:41;;;;;;;5.80;4.90;;;;;;;;;;5047647;28;20517;-80
2023/07/24 09:34:15;;;;;;;7.25;5.07;;;;;;;;;;5040618;28;20053;-79
2023/07/24 09:36:44;;;;;;;7.07;5.13;;;;;;;;;;5049497;28;20458;-77
2023/07/24 09:39:11;;;;;;;5.60;5.00;;;;;;;;;;5048716;28;20522;-79
2023/07/24 09:41:40;;;;;;;7.20;5.07;;;;;;;;;;5049431;28;20040;-79
2023/07/24 09:44:08;;;;;;;5.43;4.60;;;;;;;;;;5048861;28;20052;-78
2023/07/24 09:46:35;;;;;;;5.75;5.13;;;;;;;;;;5047750;28;20057;-78
2023/07/24 09:49:13;;;;;;;5.97;5.10;;;;;;;;;;5054923;28;20052;-79
2023/07/24 09:51:44;;;;;;;5.88;4.80;;;;;;;;;;5055219;28;20053;-78
2023/07/24 09:54:16;;;;;;;5.57;5.00;;;;;;;;;;5052524;28;20059;-79
2023/07/24 09:56:44;;;;;;;6.38;5.35;;;;;;;;;;5049624;28;20049;-78
2023/07/24 09:59:22;;;;;;;5.63;5.13;;;;;;;;;;5044000;28;20041;-78
2023/07/24 10:01:49;;;;;;;6.50;4.72;;;;;;;;;;5050935;28;20118;-78
2023/07/24 10:04:17;;;;;;;5.38;4.85;;;;;;;;;;5052137;28;20487;-78
2023/07/24 10:06:44;;;;;;;5.97;4.95;;;;;;;;;;5052274;28;20048;-78
2023/07/24 10:09:12;;;;;;;5.25;4.72;;;;;;;;;;5049924;28;20494;-78
2023/07/24 10:11:39;;;;;;;4.60;4.20;;;;;;;;;;5051664;28;20048;-78
2023/07/24 10:14:07;;;;;;;6.22;4.07;;;;;;;;;;5052312;28;20454;-78
2023/07/24 10:16:34;;;;;;;4.07;3.65;;;;;;;;;;5051328;28;20079;-81
2023/07/24 10:19:02;;;;;;;4.45;3.72;;;;;;;;;;5050335;28;20460;-81
2023/07/24 10:21:29;;;;;;;4.38;3.75;;;;;;;;;;5049228;28;20056;-79
2023/07/24 10:24:00;;;;;;;4.20;3.80;;;;;;;;;;5040905;28;20424;-79
2023/07/24 10:26:28;;;;;;;4.70;4.00;;;;;;;;;;5038307;28;20133;-78
2023/07/24 10:28:55;;;;;;;4.15;3.67;;;;;;;;;;5035870;28;20052;-77
2023/07/24 10:31:26;;;;;;;4.45;4.05;;;;;;;;;;5042722;28;20611;-77
2023/07/24 10:33:55;;;;;;;5.13;4.22;;;;;;;;;;5051274;28;20056;-78
2023/07/24 10:36:24;;;;;;;4.55;4.10;;;;;;;;;;5044973;28;20482;-78
2023/07/24 10:38:55;;;;;;;5.18;4.15;;;;;;;;;;5047825;28;20506;-78
2023/07/24 10:41:23;;;;;;;4.50;3.65;;;;;;;;;;5048856;28;20072;-78
2023/07/24 10:43:51;;;;;;;4.78;4.13;;;;;;;;;;5045671;28;20060;-78
2023/07/24 10:46:20;;;;;;;4.43;4.03;;;;;;;;;;5046403;28;20048;-78
2023/07/24 10:48:49;;;;;;;4.30;3.90;;;;;;;;;;5043544;28;20503;-78
2023/07/24 10:51:16;;;;;;;4.57;4.05;;;;;;;;;;5048212;28;20045;-78
2023/07/24 10:53:48;;;;;;;4.45;4.05;;;;;;;;;;5047496;28;20144;-77
2023/07/24 10:56:16;;;;;;;4.38;4.03;;;;;;;;;;5049373;28;20045;-78
2023/07/24 10:58:43;;;;;;;4.82;4.43;;;;;;;;;;5046431;28;20056;-77
2023/07/24 11:01:11;;;;;;;6.13;4.60;;;;;;;;;;5050452;28;20135;-77
2023/07/24 11:03:40;;;;;;;4.85;4.45;;;;;;;;;;5050482;28;20107;-78
2023/07/24 11:06:18;;;;;;;5.28;4.60;;;;;;;;;;5047739;28;20053;-78
2023/07/24 11:08:56;;;;;;;5.22;4.22;;;;;;;;;;5043730;28;20061;-77
2023/07/24 11:11:29;;;;;;;4.47;4.07;;;;;;;;;;5042680;28;20094;-77
2023/07/24 11:13:57;;;;;;;4.57;4.05;;;;;;;;;;5043707;28;20056;-78
2023/07/24 11:16:25;;;;;;;5.72;4.13;;;;;;;;;;5047184;28;20044;-78
2023/07/24 11:18:53;;;;;;;4.32;3.92;;;;;;;;;;5050469;28;20057;-78
2023/07/24 11:21:24;;;;;;;4.70;4.30;;;;;;;;;;5054249;28;20080;-78
2023/07/24 11:23:53;;;;;;;4.50;4.10;;;;;;;;;;5056660;28;20148;-78
2023/07/24 11:26:24;;;;;;;5.70;4.20;;;;;;;;;;5052724;28;20049;-77
2023/07/24 11:28:52;;;;;;;4.38;3.97;;;;;;;;;;5056968;28;20416;-77
2023/07/24 11:31:20;;;;;;;4.47;4.07;;;;;;;;;;5050838;28;20138;-78
2023/07/24 11:33:52;;;;;;;4.25;3.92;;;;;;;;;;5054700;28;20044;-78
2023/07/24 11:36:20;;;;;;;4.20;3.80;;;;;;;;;;5054806;28;20419;-78
2023/07/24 11:38:47;;;;;;;5.32;4.32;;;;;;;;;;5054361;28;20115;-79
2023/07/24 11:41:16;;;;;;;4.10;3.80;;;;;;;;;;5053260;28;20105;-78
2023/07/24 11:43:47;;;;;;;4.88;4.22;;;;;;;;;;5055834;28;20055;-78
2023/07/24 11:46:25;;;;;;;10.18;4.60;;;;;;;;;;5049399;28;20049;-79
2023/07/24 11:48:55;;;;;;;11.10;4.43;;;;;;;;;;5054252;28;20098;-79
2023/07/24 11:51:24;;;;;;;4.80;4.10;;;;;;;;;;5054200;28;20110;-78
2023/07/24 11:53:52;;;;;;;4.15;3.80;;;;;;;;;;5053489;28;20137;-78
2023/07/24 11:56:21;;;;;;;4.85;4.30;;;;;;;;;;5053499;28;20056;-78
2023/07/24 11:58:48;;;;;;;4.55;4.07;;;;;;;;;;5052322;28;20064;-78
2023/07/24 12:01:16;;;;;;;4.90;4.50;;;;;;;;;;5051096;28;20041;-78
2023/07/24 12:03:43;;;;;;;7.18;4.80;;;;;;;;;;5053755;28;20045;-78
2023/07/24 12:06:17;;;;;;;4.55;4.15;;;;;;;;;;5051794;28;20048;-78
2023/07/24 12:08:45;;;;;;;7.70;4.10;;;;;;;;;;5045593;28;20063;-78
2023/07/24 12:11:18;;;;;;;4.40;4.00;;;;;;;;;;5054425;28;20584;-78
2023/07/24 12:13:46;;;;;;;4.40;4.00;;;;;;;;;;5049157;28;20602;-79
2023/07/24 12:16:13;;;;;;;4.32;3.92;;;;;;;;;;5052608;28;20131;-78
2023/07/24 12:18:41;;;;;;;4.85;3.90;;;;;;;;;;5054210;28;20041;-78
2023/07/24 12:21:08;;;;;;;4.00;3.60;;;;;;;;;;5054514;28;20052;-78
2023/07/24 12:23:35;;;;;;;3.55;3.28;;;;;;;;;;5053258;28;20091;-79
2023/07/24 12:26:03;;;;;;;3.85;3.55;;;;;;;;;;5053779;28;20049;-79
2023/07/24 12:28:30;;;;;;;5.35;3.97;;;;;;;;;;5050143;28;20106;-79
2023/07/24 12:30:58;;;;;;;3.92;3.63;;;;;;;;;;5053702;28;20055;-78
2023/07/24 12:33:25;;;;;;;6.38;3.97;;;;;;;;;;5047957;28;20112;-78
2023/07/24 12:35:53;;;;;;;3.72;3.42;;;;;;;;;;5051094;28;20057;-78
2023/07/24 12:38:20;;;;;;;3.70;3.40;;;;;;;;;;5053435;28;20070;-79
2023/07/24 12:40:48;;;;;;;5.18;3.35;;;;;;;;;;5054947;28;20056;-79
2023/07/24 12:43:15;;;;;;;5.35;3.70;;;;;;;;;;5051946;28;20098;-78
2023/07/24 12:45:43;;;;;;;3.53;3.22;;;;;;;;;;5055729;28;20057;-79
2023/07/24 12:48:10;;;;;;;3.65;3.35;;;;;;;;;;5055746;28;20171;-79
2023/07/24 12:50:38;;;;;;;3.70;3.40;;;;;;;;;;5054737;28;20078;-79
2023/07/24 12:53:06;;;;;;;3.50;3.20;;;;;;;;;;5050108;28;20215;-76
2023/07/24 12:55:40;;;;;;;3.80;3.40;;;;;;;;;;5048316;28;20047;-78
2023/07/24 12:58:07;;;;;;;3.60;3.30;;;;;;;;;;5048782;28;20056;-78
2023/07/24 13:00:37;;;;;;;3.57;3.27;;;;;;;;;;5053720;28;20047;-79
2023/07/24 13:03:05;;;;;;;4.18;3.88;;;;;;;;;;5056912;28;20200;-79
2023/07/24 13:05:33;;;;;;;5.18;3.50;;;;;;;;;;5050375;28;20072;-79
2023/07/24 13:08:01;;;;;;;3.55;3.30;;;;;;;;;;5043907;28;20060;-79
2023/07/24 13:10:28;;;;;;;3.47;3.05;;;;;;;;;;5048303;28;20072;-79
2023/07/24 13:12:55;;;;;;;3.88;3.10;;;;;;;;;;5048776;28;20064;-79
2023/07/24 13:15:23;;;;;;;3.33;3.13;;;;;;;;;;5053124;28;20041;-78
2023/07/24 13:17:50;;;;;;;3.33;3.13;;;;;;;;;;5051951;28;20068;-79
2023/07/24 13:20:18;;;;;;;3.38;3.15;;;;;;;;;;5052622;28;20047;-79
2023/07/24 13:22:46;;;;;;;3.50;3.20;;;;;;;;;;5052103;28;20087;-79
2023/07/24 13:25:14;;;;;;;7.10;3.78;;;;;;;;;;5051970;28;20049;-79
2023/07/24 13:27:42;;;;;;;3.50;3.20;;;;;;;;;;5052600;28;20049;-78
2023/07/24 13:30:09;;;;;;;3.40;3.20;;;;;;;;;;5051872;28;20094;-78
2023/07/24 13:32:37;;;;;;;3.50;3.20;;;;;;;;;;5038070;28;20124;-79
2023/07/24 13:35:04;;;;;;;3.60;3.33;;;;;;;;;;5046561;28;20048;-78
2023/07/24 13:37:32;;;;;;;3.67;3.38;;;;;;;;;;5048611;28;20052;-78
2023/07/24 13:39:59;;;;;;;3.42;3.08;;;;;;;;;;5052316;28;20068;-78
2023/07/24 13:42:26;;;;;;;3.50;3.30;;;;;;;;;;5047574;28;20064;-79
2023/07/24 13:44:54;;;;;;;3.30;3.00;;;;;;;;;;5043062;28;20146;-79
2023/07/24 13:47:21;;;;;;;3.13;2.78;;;;;;;;;;5043723;28;20049;-78
2023/07/24 13:49:49;;;;;;;3.40;3.10;;;;;;;;;;5046625;28;20056;-78
2023/07/24 13:52:16;;;;;;;3.60;3.35;;;;;;;;;;5046368;28;20049;-78
2023/07/24 13:54:43;;;;;;;4.65;3.13;;;;;;;;;;5045264;28;20243;-79
2023/07/24 13:57:11;;;;;;;3.10;2.90;;;;;;;;;;5047257;28;20044;-79
2023/07/24 13:59:39;;;;;;;3.47;3.13;;;;;;;;;;5044775;28;20349;-79
2023/07/24 14:02:07;;;;;;;2.97;2.78;;;;;;;;;;5046521;28;20044;-77
2023/07/24 14:04:34;;;;;;;9.05;3.30;;;;;;;;;;5047362;28;20049;-79
2023/07/24 14:07:02;;;;;;;3.40;3.08;;;;;;;;;;5047916;28;20071;-78
2023/07/24 14:09:30;;;;;;;3.97;3.30;;;;;;;;;;5041947;28;20064;-78
2023/07/24 14:11:58;;;;;;;3.20;2.90;;;;;;;;;;5047216;28;20087;-78
2023/07/24 14:14:26;;;;;;;3.65;3.20;;;;;;;;;;5037202;28;20060;-79
2023/07/24 14:16:54;;;;;;;3.90;3.50;;;;;;;;;;5043747;28;20055;-78
2023/07/24 14:19:23;;;;;;;3.47;3.17;;;;;;;;;;5047111;28;20111;-77
2023/07/24 14:21:51;;;;;;;6.50;3.20;;;;;;;;;;5047586;28;20113;-77
2023/07/24 14:24:18;;;;;;;3.50;3.22;;;;;;;;;;5049899;28;20124;-79
2023/07/24 14:26:46;;;;;;;4.32;3.50;;;;;;;;;;5048603;28;20048;-79
2023/07/24 14:29:17;;;;;;;3.55;3.25;;;;;;;;;;5047677;28;20049;-78
2023/07/24 14:31:44;;;;;;;3.63;2.90;;;;;;;;;;5038152;28;20048;-76
2023/07/24 14:34:12;;;;;;;3.22;3.00;;;;;;;;;;5042517;28;20109;-79
2023/07/24 14:36:40;;;;;;;3.80;3.42;;;;;;;;;;5040526;28;20037;-74
2023/07/24 14:39:07;;;;;;;5.03;3.25;;;;;;;;;;5045918;28;20075;-76
2023/07/24 14:41:35;;;;;;;3.40;3.10;;;;;;;;;;5044828;28;20044;-77
2023/07/24 14:44:03;;;;;;;3.28;3.08;;;;;;;;;;5035919;28;20422;-76
2023/07/24 14:46:30;;;;;;;4.97;3.47;;;;;;;;;;5035600;28;20141;-76
2023/07/24 14:48:58;;;;;;;6.35;3.30;;;;;;;;;;5041003;28;20606;-76